Time;durP1;ratioP1;P1;durP2;ratioP2;P2;SDS_P1;SDS_P2;PMS_P1;PMS_P2;Temp;Humidity;BMP_temperature;BMP_pressure;BME280_temperature;BME280_humidity;BME280_pressure;Samples;Min_cycle;Max_cycle;Signal;HPM_P1;HPM_P2
2023/10/30 00:01:34;;;;;;;0.00;0.00;;;;;;;9.52;83.39;98098.31;7364405;19;20046;-59
2023/10/30 00:04:00;;;;;;;0.10;0.10;;;;;;;9.51;83.11;98096.63;7360371;19;20020;-59
2023/10/30 00:06:25;;;;;;;0.10;0.10;;;;;;;9.47;83.30;98105.56;7358967;19;20013;-59
2023/10/30 00:08:51;;;;;;;0.10;0.10;;;;;;;9.48;83.22;98114.22;7362965;19;20519;-58
2023/10/30 00:11:16;;;;;;;0.00;0.00;;;;;;;9.34;82.76;98099.44;7363309;19;20016;-59
2023/10/30 00:13:42;;;;;;;0.00;0.00;;;;;;;9.45;82.72;98117.84;7355486;19;20026;-58
2023/10/30 00:16:11;;;;;;;0.10;0.10;;;;;;;9.26;82.86;98083.41;7361931;19;20082;-59
2023/10/30 00:18:38;;;;;;;0.10;0.10;;;;;;;9.42;83.23;98128.44;7364574;19;20019;-58
2023/10/30 00:21:04;;;;;;;0.00;0.00;;;;;;;9.33;82.90;98108.19;7368015;19;20007;-59
2023/10/30 00:23:30;;;;;;;0.10;0.10;;;;;;;9.38;82.93;98124.38;7360400;19;20015;-58
2023/10/30 00:25:56;;;;;;;0.00;0.00;;;;;;;9.39;83.35;98122.59;7359870;19;20030;-56
2023/10/30 00:28:22;;;;;;;0.00;0.00;;;;;;;9.38;83.35;98126.97;7346468;19;20351;-59
2023/10/30 00:30:47;;;;;;;0.00;0.00;;;;;;;9.36;83.08;98126.19;7361906;19;20017;-58
2023/10/30 00:33:13;;;;;;;0.10;0.10;;;;;;;9.33;83.33;98122.03;7369585;19;20015;-59
2023/10/30 00:35:38;;;;;;;0.10;0.10;;;;;;;9.34;83.27;98125.47;7359290;19;20364;-57
2023/10/30 00:38:03;;;;;;;0.00;0.00;;;;;;;9.30;83.02;98122.19;7364417;19;20031;-58
2023/10/30 00:40:29;;;;;;;0.10;0.10;;;;;;;9.31;83.14;98125.63;7362861;19;20017;-59
2023/10/30 00:42:54;;;;;;;0.10;0.10;;;;;;;9.26;83.14;98130.28;7354209;19;20018;-58
2023/10/30 00:45:20;;;;;;;0.00;0.00;;;;;;;9.26;82.83;98128.50;7359936;19;20402;-58
2023/10/30 00:47:45;;;;;;;0.10;0.10;;;;;;;9.12;82.72;98109.41;7359889;19;20022;-58
2023/10/30 00:50:11;;;;;;;0.05;0.05;;;;;;;9.23;82.89;98133.06;7359915;19;20007;-59
2023/10/30 00:52:36;;;;;;;0.10;0.10;;;;;;;9.20;83.18;98143.66;7361753;19;20014;-58
2023/10/30 00:55:02;;;;;;;0.10;0.10;;;;;;;9.20;83.00;98138.44;7348983;19;20449;-57
2023/10/30 00:57:27;;;;;;;0.00;0.00;;;;;;;9.18;83.11;98140.31;7357011;19;20010;-58
2023/10/30 00:59:53;;;;;;;0.10;0.10;;;;;;;9.16;82.94;98144.75;7358825;19;20042;-58
2023/10/30 01:02:18;;;;;;;0.10;0.10;;;;;;;9.12;82.92;98145.84;7353080;19;20022;-59
2023/10/30 01:04:44;;;;;;;0.00;0.00;;;;;;;9.14;82.70;98159.66;7358426;19;20016;-59
2023/10/30 01:07:09;;;;;;;0.10;0.10;;;;;;;9.10;83.21;98157.19;7351794;19;20491;-58
2023/10/30 01:09:34;;;;;;;0.00;0.00;;;;;;;9.09;82.95;98152.94;7363516;19;20025;-59
2023/10/30 01:12:00;;;;;;;0.10;0.10;;;;;;;9.07;82.72;98160.00;7341142;19;20637;-59
2023/10/30 01:14:25;;;;;;;0.00;0.00;;;;;;;9.06;82.87;98150.50;7360018;19;20017;-58
2023/10/30 01:16:51;;;;;;;0.10;0.10;;;;;;;9.01;82.84;98151.69;7371204;19;20009;-59
2023/10/30 01:19:17;;;;;;;0.10;0.10;;;;;;;8.95;82.97;98145.06;7360510;19;20018;-58
2023/10/30 01:21:43;;;;;;;0.00;0.00;;;;;;;8.97;82.86;98157.97;7359662;19;20014;-58
2023/10/30 01:24:09;;;;;;;0.10;0.10;;;;;;;9.00;83.04;98165.63;7356392;19;20010;-56
2023/10/30 01:26:34;;;;;;;0.10;0.10;;;;;;;8.98;83.01;98165.72;7361165;19;20046;-58
2023/10/30 01:29:00;;;;;;;0.10;0.10;;;;;;;8.93;82.85;98162.53;7358828;19;20406;-58
2023/10/30 01:31:27;;;;;;;0.10;0.10;;;;;;;8.92;83.03;98155.66;7363220;19;20774;-59
2023/10/30 01:33:56;;;;;;;;;;;;;;;8.95;82.19;98165.06;7359074;19;20466;-59
2023/10/30 01:36:21;;;;;;;0.00;0.00;;;;;;;8.88;82.75;98169.78;7361164;19;21171;-59
2023/10/30 01:38:47;;;;;;;0.00;0.00;;;;;;;8.78;82.72;98150.41;7360701;19;20473;-58
2023/10/30 01:41:12;;;;;;;0.10;0.10;;;;;;;8.84;82.89;98173.47;7363729;19;20014;-58
2023/10/30 01:43:38;;;;;;;0.10;0.10;;;;;;;8.78;82.94;98173.81;7356103;19;20007;-57
2023/10/30 01:46:05;;;;;;;0.00;0.00;;;;;;;8.78;82.92;98179.84;7361002;19;20017;-56
2023/10/30 01:48:33;;;;;;;0.10;0.10;;;;;;;8.77;82.92;98183.38;7360833;19;20018;-57
2023/10/30 01:51:00;;;;;;;0.00;0.00;;;;;;;8.76;82.70;98180.84;7360843;19;20018;-59
2023/10/30 01:53:27;;;;;;;0.10;0.10;;;;;;;8.76;82.79;98183.44;7364754;19;20019;-57
2023/10/30 01:55:55;;;;;;;0.10;0.10;;;;;;;8.67;83.05;98170.94;7362700;19;20025;-58
2023/10/30 01:58:22;;;;;;;0.10;0.10;;;;;;;8.74;83.36;98180.09;7366635;19;20348;-59
2023/10/30 02:00:48;;;;;;;0.00;0.00;;;;;;;8.78;83.36;98184.22;7349600;19;20013;-59
2023/10/30 02:03:13;;;;;;;0.03;0.03;;;;;;;8.78;83.55;98184.22;7363962;19;20398;-58
2023/10/30 02:05:39;;;;;;;0.00;0.00;;;;;;;8.83;83.69;98182.19;7359532;19;20018;-58
2023/10/30 02:08:05;;;;;;;0.10;0.10;;;;;;;8.82;83.85;98186.56;7365661;19;20718;-58
2023/10/30 02:10:30;;;;;;;0.10;0.10;;;;;;;8.86;83.34;98189.81;7360069;19;20022;-57
2023/10/30 02:12:56;;;;;;;0.03;0.03;;;;;;;8.90;83.44;98191.34;7363418;19;20003;-59
2023/10/30 02:15:21;;;;;;;0.10;0.10;;;;;;;8.91;83.64;98185.19;7356780;19;20358;-58
2023/10/30 02:17:47;;;;;;;0.10;0.10;;;;;;;8.97;83.78;98189.22;7364314;19;20378;-58
2023/10/30 02:20:12;;;;;;;0.00;0.00;;;;;;;8.87;83.89;98167.22;7364253;19;20018;-58
2023/10/30 02:22:38;;;;;;;0.10;0.10;;;;;;;8.94;83.49;98182.44;7361254;19;20010;-57
2023/10/30 02:25:06;;;;;;;0.00;0.00;;;;;;;9.07;83.30;98195.59;7359642;19;20011;-59
2023/10/30 02:27:32;;;;;;;0.00;0.00;;;;;;;9.07;83.66;98196.44;7359523;19;20014;-57
2023/10/30 02:29:57;;;;;;;0.10;0.10;;;;;;;9.11;83.27;98199.69;7358631;19;20018;-59
2023/10/30 02:32:23;;;;;;;0.10;0.10;;;;;;;9.01;83.68;98175.09;7366870;19;20486;-59
2023/10/30 02:34:48;;;;;;;0.10;0.10;;;;;;;9.15;83.41;98197.75;7364638;19;20076;-57
2023/10/30 02:37:14;;;;;;;0.10;0.10;;;;;;;9.10;83.20;98179.78;7366632;19;20006;-59
2023/10/30 02:39:40;;;;;;;0.00;0.00;;;;;;;9.20;83.67;98195.75;7371558;19;20026;-58
2023/10/30 02:42:06;;;;;;;0.00;0.00;;;;;;;9.22;83.39;98199.06;7362710;19;20537;-58
2023/10/30 02:44:32;;;;;;;0.10;0.10;;;;;;;9.22;83.34;98188.66;7363831;19;20022;-58
2023/10/30 02:46:57;;;;;;;0.05;0.05;;;;;;;9.14;83.02;98180.47;7361130;19;20011;-58
2023/10/30 02:49:24;;;;;;;0.10;0.10;;;;;;;9.23;83.40;98196.41;7371666;19;20487;-57
2023/10/30 02:51:50;;;;;;;0.10;0.10;;;;;;;9.22;82.87;98199.91;7357215;19;20084;-59
2023/10/30 02:54:16;;;;;;;0.10;0.10;;;;;;;9.21;82.82;98197.41;7369269;19;20538;-58
2023/10/30 02:56:41;;;;;;;0.10;0.10;;;;;;;9.19;82.73;98200.09;7373646;19;20010;-58
2023/10/30 02:59:06;;;;;;;0.10;0.10;;;;;;;9.18;83.14;98202.81;7363659;19;20010;-57
2023/10/30 03:01:32;;;;;;;0.00;0.00;;;;;;;9.02;82.83;98184.59;7366463;19;20010;-59
2023/10/30 03:03:58;;;;;;;0.10;0.10;;;;;;;9.13;82.70;98199.63;7363986;19;20014;-58
2023/10/30 03:06:25;;;;;;;0.00;0.00;;;;;;;9.14;82.94;98201.31;7369404;19;20781;-59
2023/10/30 03:08:50;;;;;;;0.10;0.10;;;;;;;9.14;83.11;98206.50;7370077;19;20026;-58
2023/10/30 03:11:15;;;;;;;0.10;0.10;;;;;;;9.10;82.91;98196.25;7367610;19;20509;-59
2023/10/30 03:13:41;;;;;;;0.03;0.03;;;;;;;9.10;82.90;98201.47;7361031;19;20769;-58
2023/10/30 03:16:06;;;;;;;0.00;0.00;;;;;;;9.12;82.81;98200.53;7371250;19;20014;-57
2023/10/30 03:18:32;;;;;;;0.10;0.10;;;;;;;9.11;82.99;98207.50;7364479;19;20014;-59
2023/10/30 03:20:57;;;;;;;0.00;0.00;;;;;;;9.07;82.85;98201.66;7362648;19;20032;-59
2023/10/30 03:23:23;;;;;;;0.10;0.10;;;;;;;9.08;82.62;98203.31;7365739;19;20510;-59
2023/10/30 03:25:48;;;;;;;0.00;0.00;;;;;;;9.03;82.78;98199.31;7371759;19;20370;-59
2023/10/30 03:28:13;;;;;;;0.00;0.00;;;;;;;9.04;82.49;98204.41;7370696;19;20037;-59
2023/10/30 03:30:39;;;;;;;0.10;0.10;;;;;;;9.02;82.67;98203.69;7361394;19;20018;-59
2023/10/30 03:33:04;;;;;;;0.10;0.10;;;;;;;9.01;82.62;98203.75;7365975;19;20018;-59
2023/10/30 03:35:31;;;;;;;0.00;0.00;;;;;;;8.98;82.90;98207.38;7363389;19;20007;-59
2023/10/30 03:37:56;;;;;;;0.00;0.00;;;;;;;8.96;82.45;98213.56;7365392;19;20014;-58
2023/10/30 03:40:22;;;;;;;0.10;0.10;;;;;;;8.82;82.36;98196.16;7366699;19;20014;-56
2023/10/30 03:42:48;;;;;;;0.00;0.00;;;;;;;8.82;82.96;98193.53;7371805;19;20014;-57
2023/10/30 03:45:13;;;;;;;0.10;0.10;;;;;;;8.82;82.86;98201.34;7368600;19;20913;-57
2023/10/30 03:47:40;;;;;;;0.00;0.00;;;;;;;8.86;82.67;98213.25;7364159;19;20002;-58
2023/10/30 03:50:06;;;;;;;0.10;0.10;;;;;;;8.82;82.65;98199.59;7368599;19;20023;-58
2023/10/30 03:52:32;;;;;;;0.10;0.10;;;;;;;8.81;82.87;98207.44;7355269;19;20050;-59
2023/10/30 03:55:03;;;;;;;0.00;0.00;;;;;;;8.78;82.46;98215.44;7365668;19;20014;-59
2023/10/30 03:57:32;;;;;;;0.10;0.10;;;;;;;8.75;82.79;98205.19;7367555;19;20110;-59
2023/10/30 03:59:57;;;;;;;0.10;0.10;;;;;;;8.72;82.58;98210.59;7365469;19;22188;-58
2023/10/30 04:02:22;;;;;;;0.10;0.10;;;;;;;8.69;82.57;98218.53;7361284;19;20019;-58
2023/10/30 04:04:48;;;;;;;0.05;0.05;;;;;;;8.66;82.33;98208.28;7359450;19;20016;-58
2023/10/30 04:07:17;;;;;;;0.10;0.10;;;;;;;8.64;82.72;98228.38;7363124;19;20492;-59
2023/10/30 04:09:42;;;;;;;0.10;0.10;;;;;;;8.57;82.24;98213.09;7366217;19;20010;-58
2023/10/30 04:12:07;;;;;;;0.10;0.10;;;;;;;8.58;82.70;98219.97;7364515;19;20376;-58
2023/10/30 04:14:33;;;;;;;0.10;0.10;;;;;;;8.53;82.67;98216.78;7359694;19;20082;-57
2023/10/30 04:17:02;;;;;;;0.10;0.10;;;;;;;8.54;82.59;98222.81;7368601;19;20435;-59
2023/10/30 04:19:27;;;;;;;0.00;0.00;;;;;;;8.51;82.49;98221.22;7333441;19;20126;-57
2023/10/30 04:21:52;;;;;;;0.08;0.08;;;;;;;8.48;82.44;98224.00;7357741;19;20109;-57
2023/10/30 04:24:18;;;;;;;0.00;0.00;;;;;;;8.46;82.80;98225.81;7366670;19;20438;-57
2023/10/30 04:26:43;;;;;;;0.00;0.00;;;;;;;8.39;82.86;98214.06;7364289;19;20010;-58
2023/10/30 04:29:09;;;;;;;0.10;0.10;;;;;;;8.43;82.58;98223.41;7365888;19;20021;-59
2023/10/30 04:31:34;;;;;;;0.10;0.10;;;;;;;8.42;82.69;98220.88;7367374;19;20348;-58
2023/10/30 04:33:59;;;;;;;0.05;0.05;;;;;;;8.40;82.67;98226.16;7360085;19;20006;-58
2023/10/30 04:36:25;;;;;;;0.10;0.10;;;;;;;8.38;82.56;98222.81;7365445;19;20003;-58
2023/10/30 04:38:50;;;;;;;0.10;0.10;;;;;;;8.36;82.49;98223.75;7363059;19;20641;-59
2023/10/30 04:41:15;;;;;;;0.10;0.10;;;;;;;8.24;82.58;98214.88;7367825;19;20082;-59
2023/10/30 04:43:41;;;;;;;0.00;0.00;;;;;;;8.30;82.88;98232.72;7365968;19;20011;-59
2023/10/30 04:46:07;;;;;;;0.08;0.08;;;;;;;8.25;82.61;98232.13;7358519;19;20011;-58
2023/10/30 04:48:33;;;;;;;0.05;0.05;;;;;;;8.28;82.54;98240.63;7365469;19;20038;-58
2023/10/30 04:50:59;;;;;;;0.10;0.10;;;;;;;8.27;82.52;98243.31;7365775;19;20014;-58
2023/10/30 04:53:24;;;;;;;0.00;0.00;;;;;;;8.25;82.67;98247.72;7363262;19;20010;-59
2023/10/30 04:55:50;;;;;;;0.08;0.08;;;;;;;8.22;82.51;98253.13;7367690;19;20017;-58
2023/10/30 04:58:15;;;;;;;0.00;0.00;;;;;;;8.17;82.43;98255.09;7335147;19;20802;-58
2023/10/30 05:00:42;;;;;;;0.05;0.05;;;;;;;8.19;82.41;98259.28;7366959;19;20018;-58
2023/10/30 05:03:09;;;;;;;0.00;0.00;;;;;;;8.17;82.48;98260.31;7343600;19;20010;-58
2023/10/30 05:05:35;;;;;;;0.00;0.00;;;;;;;8.17;82.99;98262.91;7366435;19;20015;-58
2023/10/30 05:08:01;;;;;;;0.10;0.10;;;;;;;8.15;82.99;98262.97;7360738;19;20478;-58
2023/10/30 05:10:27;;;;;;;0.08;0.08;;;;;;;8.14;82.54;98270.84;7363189;19;20018;-56
2023/10/30 05:12:52;;;;;;;0.10;0.10;;;;;;;8.12;82.50;98273.53;7365385;19;20006;-59
2023/10/30 05:15:18;;;;;;;0.10;0.10;;;;;;;8.02;82.84;98261.94;7361106;19;20014;-58
2023/10/30 05:17:44;;;;;;;0.10;0.10;;;;;;;8.00;82.84;98264.59;7367516;19;20386;-58
2023/10/30 05:20:10;;;;;;;0.00;0.00;;;;;;;7.92;83.00;98253.78;7359699;19;20018;-58
2023/10/30 05:22:35;;;;;;;0.10;0.10;;;;;;;7.99;82.56;98273.31;7365692;19;20007;-57
2023/10/30 05:25:04;;;;;;;0.10;0.10;;;;;;;8.05;82.75;98288.59;7364433;19;20413;-58
2023/10/30 05:27:30;;;;;;;0.10;0.10;;;;;;;8.03;82.85;98287.84;7366168;19;20495;-57
2023/10/30 05:29:56;;;;;;;0.00;0.00;;;;;;;8.02;82.80;98287.94;7361330;19;20010;-58
2023/10/30 05:32:21;;;;;;;0.10;0.10;;;;;;;8.00;82.68;98292.34;7373105;19;20023;-58
2023/10/30 05:34:48;;;;;;;0.00;0.00;;;;;;;7.97;82.51;98298.56;7361204;19;20479;-58
2023/10/30 05:37:13;;;;;;;0.05;0.05;;;;;;;7.83;82.68;98276.78;7363298;19;20038;-57
2023/10/30 05:39:39;;;;;;;0.10;0.10;;;;;;;7.96;82.56;98307.28;7357323;19;20833;-58
2023/10/30 05:42:05;;;;;;;0.10;0.10;;;;;;;7.93;82.55;98304.81;7334693;19;20022;-58
2023/10/30 05:44:31;;;;;;;0.10;0.10;;;;;;;7.79;82.56;98292.50;7364797;19;20014;-57
2023/10/30 05:46:59;;;;;;;0.05;0.05;;;;;;;7.92;82.38;98317.91;7362488;19;20312;-58
2023/10/30 05:49:28;;;;;;;0.10;0.10;;;;;;;7.85;82.42;98317.34;7358495;19;20016;-58
2023/10/30 05:51:53;;;;;;;0.10;0.10;;;;;;;7.88;82.73;98322.41;7362082;19;20348;-59
2023/10/30 05:54:20;;;;;;;0.10;0.10;;;;;;;7.71;82.49;98291.22;7362431;19;20401;-58
2023/10/30 05:56:45;;;;;;;0.10;0.10;;;;;;;7.80;82.95;98308.94;7366062;19;20011;-58
2023/10/30 05:59:10;;;;;;;0.10;0.10;;;;;;;7.83;82.56;98311.38;7361051;19;20018;-58
2023/10/30 06:01:36;;;;;;;0.10;0.10;;;;;;;7.82;82.82;98316.66;7362973;19;20010;-58
2023/10/30 06:04:02;;;;;;;0.00;0.00;;;;;;;7.80;82.66;98319.31;7365419;19;20015;-59
2023/10/30 06:06:28;;;;;;;0.10;0.10;;;;;;;7.74;82.67;98314.44;7353880;19;20785;-59
2023/10/30 06:08:53;;;;;;;0.10;0.10;;;;;;;7.77;82.92;98320.34;7362178;19;20113;-58
2023/10/30 06:11:18;;;;;;;0.10;0.10;;;;;;;7.72;82.46;98303.28;7362115;19;20006;-57
2023/10/30 06:13:44;;;;;;;0.00;0.00;;;;;;;7.74;82.58;98309.25;7362730;19;20815;-57
2023/10/30 06:16:18;;;;;;;0.08;0.08;;;;;;;7.71;82.66;98310.25;7362354;19;20505;-58
2023/10/30 06:18:44;;;;;;;0.00;0.00;;;;;;;7.69;82.61;98317.25;7366932;19;20748;-58
2023/10/30 06:21:17;;;;;;;0.10;0.10;;;;;;;7.67;82.22;98315.66;7368753;19;20011;-58
2023/10/30 06:23:43;;;;;;;0.10;0.10;;;;;;;7.65;82.71;98323.50;7368659;19;20093;-58
2023/10/30 06:26:12;;;;;;;0.00;0.00;;;;;;;7.54;82.41;98305.84;7359597;19;20129;-58
2023/10/30 06:28:38;;;;;;;0.00;0.00;;;;;;;7.62;82.31;98325.44;7361371;19;20109;-58
2023/10/30 06:31:12;;;;;;;0.03;0.03;;;;;;;7.60;82.78;98319.47;7359660;19;20014;-57
2023/10/30 06:33:37;;;;;;;0.10;0.10;;;;;;;7.58;82.82;98335.13;7358983;19;20032;-57
2023/10/30 06:36:03;;;;;;;0.10;0.10;;;;;;;7.43;82.27;98309.91;7363581;19;20820;-59
2023/10/30 06:38:28;;;;;;;0.03;0.03;;;;;;;7.52;82.34;98325.88;7362675;19;20014;-58
2023/10/30 06:40:54;;;;;;;0.00;0.00;;;;;;;7.52;82.63;98325.88;7362688;19;20014;-56
2023/10/30 06:43:19;;;;;;;0.03;0.03;;;;;;;7.49;82.45;98326.03;7358352;19;20029;-57
2023/10/30 06:45:44;;;;;;;0.00;0.00;;;;;;;7.48;82.42;98324.34;7362323;19;20010;-58
2023/10/30 06:48:10;;;;;;;0.10;0.10;;;;;;;7.44;82.67;98314.19;7356750;19;20537;-58
2023/10/30 06:50:35;;;;;;;0.00;0.00;;;;;;;7.39;82.44;98319.59;7363482;19;20011;-58
2023/10/30 06:53:01;;;;;;;0.10;0.10;;;;;;;7.41;82.20;98338.56;7363113;19;20010;-58
2023/10/30 06:55:26;;;;;;;0.10;0.10;;;;;;;7.25;82.56;98314.22;7354923;19;20014;-57
2023/10/30 06:57:51;;;;;;;0.05;0.05;;;;;;;7.38;82.13;98343.88;7359196;19;20465;-57
2023/10/30 07:00:19;;;;;;;0.10;0.10;;;;;;;7.08;82.48;98298.59;7361547;19;20045;-56
2023/10/30 07:02:44;;;;;;;0.00;0.00;;;;;;;7.32;82.65;98346.75;7362876;19;20481;-58
2023/10/30 07:05:10;;;;;;;0.10;0.10;;;;;;;7.32;82.43;98349.38;7366296;19;20003;-59
2023/10/30 07:07:35;;;;;;;0.10;0.10;;;;;;;7.27;82.60;98344.38;7371773;19;20040;-58
2023/10/30 07:10:02;;;;;;;0.10;0.10;;;;;;;7.29;82.37;98352.09;7363082;19;20010;-58
2023/10/30 07:12:28;;;;;;;0.10;0.10;;;;;;;7.28;82.41;98353.00;7358830;19;20506;-58
2023/10/30 07:14:53;;;;;;;0.03;0.03;;;;;;;7.18;82.46;98346.56;7339126;19;20011;-58
2023/10/30 07:17:18;;;;;;;0.00;0.00;;;;;;;7.25;82.66;98358.38;7332011;19;20021;-58
2023/10/30 07:19:46;;;;;;;0.00;0.00;;;;;;;7.23;82.46;98365.34;7355166;19;20395;-58
2023/10/30 07:22:11;;;;;;;0.00;0.00;;;;;;;7.23;82.54;98370.56;7358383;19;20879;-59
2023/10/30 07:24:37;;;;;;;0.10;0.10;;;;;;;7.17;82.42;98366.50;7359603;19;20217;-58
2023/10/30 07:27:02;;;;;;;0.08;0.08;;;;;;;7.18;82.24;98375.13;7359741;19;20002;-58
2023/10/30 07:29:28;;;;;;;0.10;0.10;;;;;;;7.19;82.70;98379.38;7355646;19;20017;-58
2023/10/30 07:31:55;;;;;;;0.00;0.00;;;;;;;7.17;82.75;98381.22;7340881;19;20006;-57
2023/10/30 07:34:21;;;;;;;0.05;0.05;;;;;;;7.16;82.48;98384.75;7367466;19;20014;-58
2023/10/30 07:36:47;;;;;;;0.10;0.10;;;;;;;7.01;82.83;98371.53;7368242;19;20084;-58
2023/10/30 07:39:13;;;;;;;0.00;0.00;;;;;;;7.16;82.66;98395.13;7345150;19;20093;-58
2023/10/30 07:41:39;;;;;;;0.00;0.00;;;;;;;7.14;82.37;98402.94;7364237;19;20010;-57
2023/10/30 07:44:05;;;;;;;0.00;0.00;;;;;;;7.05;82.80;98393.00;7376008;19;20014;-58
2023/10/30 07:46:30;;;;;;;0.10;0.10;;;;;;;7.11;82.69;98402.28;7364153;19;20042;-56
2023/10/30 07:48:55;;;;;;;0.10;0.10;;;;;;;6.98;82.63;98387.25;7371239;19;20007;-58
2023/10/30 07:51:21;;;;;;;0.05;0.05;;;;;;;7.13;82.79;98409.06;7367839;19;20619;-58
2023/10/30 07:53:46;;;;;;;0.00;0.00;;;;;;;7.15;82.51;98414.22;7368701;19;20018;-58
2023/10/30 07:56:11;;;;;;;0.00;0.00;;;;;;;7.14;82.47;98417.69;7367471;19;20010;-58
2023/10/30 07:58:37;;;;;;;0.00;0.00;;;;;;;7.15;82.67;98419.41;7366301;19;20146;-58
2023/10/30 08:01:03;;;;;;;0.10;0.10;;;;;;;7.08;82.86;98412.78;7361941;19;20482;-58
2023/10/30 08:03:28;;;;;;;0.10;0.10;;;;;;;7.16;82.82;98421.06;7362474;19;20042;-58
2023/10/30 08:05:58;;;;;;;0.10;0.10;;;;;;;7.02;82.77;98393.13;7323865;19;20038;-57
2023/10/30 08:08:23;;;;;;;0.10;0.10;;;;;;;7.07;82.54;98411.09;7368688;19;20022;-58
2023/10/30 08:10:49;;;;;;;0.10;0.10;;;;;;;7.15;82.83;98429.78;7367248;19;20797;-58
2023/10/30 08:13:14;;;;;;;0.05;0.05;;;;;;;7.23;82.77;98435.44;7366739;19;20357;-56
2023/10/30 08:15:39;;;;;;;0.00;0.00;;;;;;;7.26;82.60;98430.13;7356291;19;20007;-58
2023/10/30 08:18:05;;;;;;;0.05;0.05;;;;;;;7.29;82.58;98440.34;7366488;19;20014;-59
2023/10/30 08:20:31;;;;;;;0.00;0.00;;;;;;;7.31;82.69;98445.50;7354045;19;19994;-58
2023/10/30 08:22:56;;;;;;;0.03;0.03;;;;;;;7.35;83.14;98447.88;7366634;19;20030;-59
2023/10/30 08:25:22;;;;;;;0.10;0.10;;;;;;;7.35;82.69;98442.69;7361141;19;20479;-58
2023/10/30 08:27:47;;;;;;;0.10;0.10;;;;;;;7.43;83.20;98455.31;7374363;19;20027;-58
2023/10/30 08:30:13;;;;;;;0.08;0.08;;;;;;;7.48;83.04;98448.16;7364434;19;20795;-58
2023/10/30 08:32:39;;;;;;;0.10;0.10;;;;;;;7.49;82.96;98450.66;7369759;19;20082;-58
2023/10/30 08:35:05;;;;;;;0.03;0.03;;;;;;;7.51;82.75;98448.84;7359942;19;20100;-58
2023/10/30 08:37:31;;;;;;;0.05;0.05;;;;;;;7.62;82.99;98468.28;7364584;19;20118;-58
2023/10/30 08:39:56;;;;;;;0.05;0.05;;;;;;;7.67;82.60;98464.56;7365148;19;20117;-58
2023/10/30 08:42:21;;;;;;;0.10;0.10;;;;;;;7.73;82.66;98466.03;7359530;19;20009;-57
2023/10/30 08:44:47;;;;;;;0.10;0.10;;;;;;;7.72;83.05;98451.38;7360310;19;20865;-58
2023/10/30 08:47:14;;;;;;;0.03;0.03;;;;;;;7.88;82.64;98467.06;7360490;19;20015;-57
2023/10/30 08:49:39;;;;;;;0.10;0.10;;;;;;;7.94;82.76;98470.22;7363291;19;20006;-56
2023/10/30 08:52:05;;;;;;;0.10;0.10;;;;;;;8.00;82.71;98467.31;7360572;19;20010;-58
2023/10/30 08:54:31;;;;;;;0.10;0.10;;;;;;;8.11;82.50;98473.75;7361567;19;20056;-57
2023/10/30 08:56:56;;;;;;;0.10;0.10;;;;;;;8.18;82.92;98469.97;7366001;19;20418;-57
2023/10/30 08:59:22;;;;;;;0.00;0.00;;;;;;;8.31;82.68;98474.50;7361232;19;20021;-59
2023/10/30 09:01:47;;;;;;;0.00;0.00;;;;;;;8.44;82.56;98482.53;7353111;19;20014;-58
2023/10/30 09:04:13;;;;;;;0.00;0.00;;;;;;;8.58;82.20;98480.09;7360257;19;20430;-58
2023/10/30 09:06:38;;;;;;;0.00;0.00;;;;;;;8.76;82.45;98482.69;7365644;19;20105;-57
2023/10/30 09:09:03;;;;;;;0.10;0.10;;;;;;;8.94;81.99;98481.75;7365694;19;20025;-58
2023/10/30 09:11:29;;;;;;;0.10;0.10;;;;;;;9.15;81.92;98484.16;7365111;19;20375;-57
2023/10/30 09:13:54;;;;;;;0.00;0.00;;;;;;;9.36;81.30;98477.81;7356132;19;20028;-58
2023/10/30 09:16:20;;;;;;;0.10;0.10;;;;;;;9.53;81.13;98469.97;7363973;19;20010;-58
2023/10/30 09:18:45;;;;;;;0.03;0.03;;;;;;;9.71;80.58;98477.69;7355385;19;20049;-58
2023/10/30 09:21:11;;;;;;;0.10;0.10;;;;;;;9.89;80.62;98471.47;7362297;19;20010;-59
2023/10/30 09:23:37;;;;;;;0.10;0.10;;;;;;;10.06;80.21;98473.97;7355628;19;20113;-58
2023/10/30 09:26:03;;;;;;;0.10;0.10;;;;;;;10.24;79.56;98485.19;7363296;19;20037;-57
2023/10/30 09:28:28;;;;;;;0.03;0.03;;;;;;;10.42;79.39;98485.88;7363898;19;20006;-59
2023/10/30 09:30:53;;;;;;;0.00;0.00;;;;;;;10.63;79.30;98479.41;7363287;19;20047;-58
2023/10/30 09:33:19;;;;;;;0.10;0.10;;;;;;;10.88;78.88;98485.81;7355715;19;20003;-58
2023/10/30 09:35:44;;;;;;;0.10;0.10;;;;;;;11.18;78.48;98497.03;7362824;19;20031;-58
2023/10/30 09:38:10;;;;;;;0.00;0.00;;;;;;;11.49;77.96;98484.69;7364176;19;20006;-57
2023/10/30 09:40:35;;;;;;;0.10;0.10;;;;;;;11.79;77.41;98481.09;7337165;19;20003;-57
2023/10/30 09:43:04;;;;;;;0.10;0.10;;;;;;;12.13;77.05;98485.06;7355839;19;20025;-59
2023/10/30 09:45:29;;;;;;;0.10;0.10;;;;;;;12.50;76.53;98488.75;7363548;19;20017;-59
2023/10/30 09:47:56;;;;;;;0.10;0.10;;;;;;;12.87;75.88;98492.34;7362231;19;20014;-59
2023/10/30 09:50:23;;;;;;;0.10;0.10;;;;;;;13.23;75.05;98494.31;7364592;19;20506;-59
2023/10/30 09:52:51;;;;;;;0.10;0.10;;;;;;;13.65;74.72;98500.13;7353319;19;20650;-58
2023/10/30 09:55:22;;;;;;;0.17;0.17;;;;;;;14.06;74.62;98498.97;7357498;19;20025;-58
2023/10/30 09:57:49;;;;;;;0.10;0.10;;;;;;;14.37;73.14;98509.84;7352220;19;20034;-59
2023/10/30 10:00:16;;;;;;;0.10;0.10;;;;;;;14.72;72.05;98512.53;7351649;19;20030;-59
2023/10/30 10:02:42;;;;;;;0.10;0.10;;;;;;;15.05;72.00;98514.41;7360293;19;20022;-59
2023/10/30 10:05:08;;;;;;;0.10;0.10;;;;;;;15.36;70.84;98506.78;7355335;19;20473;-59
2023/10/30 10:07:34;;;;;;;0.10;0.10;;;;;;;15.67;70.63;98497.41;7359881;19;20807;-60
2023/10/30 10:10:01;;;;;;;0.10;0.10;;;;;;;15.97;70.13;98496.78;7362151;19;20078;-59
2023/10/30 10:12:28;;;;;;;0.10;0.10;;;;;;;16.28;69.74;98490.69;7357158;19;20018;-60
2023/10/30 10:14:54;;;;;;;0.10;0.10;;;;;;;16.60;69.18;98500.38;7355385;19;20976;-59
2023/10/30 10:17:19;;;;;;;0.10;0.10;;;;;;;16.87;68.30;98497.28;7356965;19;20110;-59
2023/10/30 10:19:46;;;;;;;0.10;0.10;;;;;;;17.12;67.80;98496.03;7356929;19;20043;-59
2023/10/30 10:22:26;;;;;;;0.10;0.10;;;;;;;17.52;70.31;98498.75;7365796;19;20041;-59
2023/10/30 10:24:52;;;;;;;0.10;0.10;;;;;;;17.60;67.30;98506.84;7361490;19;20006;-59
2023/10/30 10:27:19;;;;;;;0.10;0.10;;;;;;;17.77;67.19;98510.69;7355791;19;20101;-59
2023/10/30 10:29:50;;;;;;;0.10;0.10;;;;;;;17.93;66.96;98519.91;7355212;19;20010;-59
2023/10/30 10:32:16;;;;;;;0.10;0.10;;;;;;;17.95;66.95;98504.78;7357704;19;20018;-59
2023/10/30 10:34:42;;;;;;;0.10;0.10;;;;;;;18.11;67.10;98515.66;7355106;19;20042;-59
2023/10/30 10:37:17;;;;;;;0.10;0.10;;;;;;;18.25;68.61;98509.97;7356508;19;20025;-59
2023/10/30 10:39:50;;;;;;;0.17;0.17;;;;;;;18.18;68.70;98506.19;7362200;19;20108;-58
2023/10/30 10:42:19;;;;;;;0.10;0.10;;;;;;;18.16;67.41;98510.81;7358717;19;20022;-59
2023/10/30 10:44:46;;;;;;;0.10;0.10;;;;;;;18.11;67.30;98499.81;7354535;19;20577;-59
2023/10/30 10:47:12;;;;;;;0.10;0.10;;;;;;;18.13;68.13;98529.56;7358681;19;20842;-59
2023/10/30 10:49:38;;;;;;;0.10;0.10;;;;;;;18.10;68.32;98527.19;7358292;19;20002;-59
2023/10/30 10:52:12;;;;;;;0.10;0.10;;;;;;;18.14;69.35;98525.94;7360286;19;20042;-59
2023/10/30 10:54:45;;;;;;;0.10;0.10;;;;;;;18.07;69.45;98532.75;7360775;19;20014;-57
2023/10/30 10:57:18;;;;;;;0.10;0.10;;;;;;;18.06;70.20;98539.00;7354807;19;20014;-60
2023/10/30 11:00:00;;;;;;;0.20;0.20;;;;;;;18.08;70.16;98547.59;7352905;19;20006;-60
2023/10/30 11:02:30;;;;;;;0.20;0.20;;;;;;;18.08;70.25;98547.59;7348468;19;20014;-59
2023/10/30 11:04:57;;;;;;;0.10;0.10;;;;;;;18.03;69.66;98544.53;7356867;19;20015;-59
2023/10/30 11:07:28;;;;;;;0.20;0.20;;;;;;;18.08;70.88;98552.91;7355788;19;20011;-59
2023/10/30 11:10:00;;;;;;;0.10;0.10;;;;;;;17.98;70.24;98541.47;7360966;19;20015;-59
2023/10/30 11:13:10;;;;;;;0.10;0.10;;;;;;;18.02;71.96;98540.22;7367273;19;20007;-59
2023/10/30 11:15:45;;;;;;;0.10;0.10;;;;;;;17.93;71.45;98546.31;7355961;19;20045;-56
2023/10/30 11:18:21;;;;;;;0.10;0.10;;;;;;;17.80;71.81;98539.47;7359396;19;20014;-59
2023/10/30 11:20:47;;;;;;;0.10;0.10;;;;;;;17.66;71.68;98542.44;7366601;19;20953;-59
2023/10/30 11:23:13;;;;;;;0.10;0.10;;;;;;;17.56;71.75;98552.94;7366304;19;20018;-59
2023/10/30 11:25:53;;;;;;;0.10;0.10;;;;;;;17.46;72.28;98546.78;7366575;19;20908;-58
2023/10/30 11:28:18;;;;;;;0.15;0.15;;;;;;;17.33;73.10;98551.41;7366233;19;20512;-59
2023/10/30 11:30:44;;;;;;;0.10;0.10;;;;;;;17.23;73.44;98556.63;7358366;19;20020;-59
2023/10/30 11:33:20;;;;;;;0.10;0.10;;;;;;;17.13;74.25;98545.19;7366259;19;20745;-59
2023/10/30 11:35:51;;;;;;;0.20;0.20;;;;;;;17.04;74.04;98545.97;7362071;19;20014;-59
2023/10/30 11:38:19;;;;;;;0.10;0.10;;;;;;;16.89;74.27;98553.38;7368647;19;20508;-59